createdAt,value
2019-04-26T00:01:42.148Z,87.37
2019-04-26T00:04:12.093Z,86.77
2019-04-26T00:06:41.222Z,87.59
2019-04-26T00:09:26.656Z,87.55
2019-04-26T00:12:20.395Z,86.13
2019-04-26T00:15:01.910Z,85.54
2019-04-26T00:17:52.631Z,86.29
2019-04-26T00:20:21.742Z,85.91
2019-04-26T00:22:51.088Z,85.18
2019-04-26T00:25:20.685Z,86.03
2019-04-26T00:27:49.957Z,85.07
2019-04-26T00:30:19.197Z,84.98
2019-04-26T00:32:48.202Z,85.21
2019-04-26T00:35:17.815Z,85.89
2019-04-26T00:37:46.886Z,86.69
2019-04-26T00:40:16.240Z,85.28
2019-04-26T00:42:45.369Z,86.43
2019-04-26T00:45:15.012Z,85.78
2019-04-26T00:47:44.252Z,85.47
2019-04-26T00:50:13.921Z,85.56
2019-04-26T00:52:44.100Z,85.67
2019-04-26T00:55:14.277Z,85.96
2019-04-26T00:57:43.407Z,86.37
2019-04-26T01:00:15.218Z,85.43
2019-04-26T01:02:48.842Z,84.88
2019-04-26T01:05:18.865Z,85.34
2019-04-26T01:07:49.992Z,86.15
2019-04-26T01:10:20.068Z,86.82
2019-04-26T01:12:49.131Z,86.34
2019-04-26T01:15:20.104Z,87.21
2019-04-26T01:17:48.933Z,87.00
2019-04-26T01:20:18.924Z,87.78
2019-04-26T01:22:50.266Z,87.67
2019-04-26T01:25:45.063Z,87.58
2019-04-26T01:28:19.621Z,86.69
2019-04-26T01:30:48.729Z,87.37
2019-04-26T01:33:18.721Z,86.15
2019-04-26T01:35:48.386Z,86.11
2019-04-26T01:38:17.457Z,87.04
2019-04-26T01:40:49.492Z,85.74
2019-04-26T01:43:28.462Z,86.46
2019-04-26T01:46:07.082Z,85.59
2019-04-26T01:48:44.796Z,86.37
2019-04-26T01:51:17.307Z,85.86
2019-04-26T01:53:46.378Z,86.31
2019-04-26T01:56:15.446Z,85.88
2019-04-26T01:58:44.586Z,86.98
2019-04-26T02:01:23.836Z,85.88
2019-04-26T02:03:52.863Z,85.84
2019-04-26T02:06:28.758Z,84.41
2019-04-26T02:08:52.764Z,85.63
2019-04-26T02:11:23.985Z,84.95
2019-04-26T02:13:53.931Z,85.22
2019-04-26T02:16:23.777Z,84.82
2019-04-26T02:18:53.193Z,83.94
2019-04-26T02:21:30.481Z,84.17
2019-04-26T02:24:07.066Z,85.00
2019-04-26T02:26:40.715Z,85.19
2019-04-26T02:29:15.347Z,84.15
2019-04-26T02:31:46.355Z,85.45
2019-04-26T02:34:15.819Z,86.01
2019-04-26T02:36:57.366Z,85.79
2019-04-26T02:39:20.046Z,84.36
2019-04-26T02:41:50.140Z,85.05
2019-04-26T02:44:21.939Z,84.84
2019-04-26T02:47:05.230Z,84.65
2019-04-26T02:49:41.744Z,85.34
2019-04-26T02:52:19.448Z,84.64
2019-04-26T02:55:00.573Z,84.95
2019-04-26T02:57:38.932Z,86.16
2019-04-26T03:00:09.545Z,86.62
2019-04-26T03:02:40.319Z,86.80
2019-04-26T03:05:09.827Z,88.98
2019-04-26T03:07:52.293Z,88.74
2019-04-26T03:10:26.134Z,90.01
2019-04-26T03:12:55.677Z,90.38
2019-04-26T03:16:03.241Z,91.06
2019-04-26T03:18:55.766Z,91.55
2019-04-26T03:21:34.533Z,92.50
2019-04-26T03:24:10.841Z,92.49
2019-04-26T03:26:48.242Z,91.96
2019-04-26T03:29:31.869Z,92.84
2019-04-26T03:32:19.060Z,93.34
2019-04-26T03:35:44.171Z,93.99
2019-04-26T03:38:34.479Z,94.60
2019-04-26T03:41:21.712Z,95.45
2019-04-26T03:44:05.001Z,95.68
2019-04-26T03:46:41.882Z,95.70
2019-04-26T03:49:33.899Z,94.89
2019-04-26T03:52:45.467Z,95.41
2019-04-26T03:56:06.847Z,93.88
2019-04-26T03:59:05.808Z,94.04
2019-04-26T04:01:41.425Z,94.94
2019-04-26T04:04:29.944Z,94.43
2019-04-26T04:07:04.813Z,94.62
2019-04-26T04:09:29.800Z,94.99
2019-04-26T04:12:12.348Z,94.61
2019-04-26T04:15:10.326Z,95.88
2019-04-26T04:17:50.241Z,96.96
2019-04-26T04:20:51.433Z,96.68
2019-04-26T04:23:48.767Z,97.13
2019-04-26T04:26:22.091Z,96.64
2019-04-26T04:29:42.616Z,97.40
2019-04-26T04:32:07.107Z,97.28
2019-04-26T04:34:42.103Z,97.05
2019-04-26T04:37:14.212Z,97.13
2019-04-26T04:40:24.208Z,96.94
2019-04-26T04:43:08.817Z,97.22
2019-04-26T04:46:12.700Z,97.10
2019-04-26T04:49:10.155Z,97.57
2019-04-26T04:52:03.637Z,97.12
2019-04-26T04:54:38.329Z,96.90
2019-04-26T04:57:13.405Z,96.78
2019-04-26T05:00:05.874Z,96.37
2019-04-26T05:02:53.466Z,95.16
2019-04-26T05:05:43.505Z,94.56
2019-04-26T05:08:38.699Z,94.13
2019-04-26T05:11:13.194Z,94.24
2019-04-26T05:13:50.830Z,94.86
2019-04-26T05:17:19.999Z,94.59
2019-04-26T05:20:31.027Z,94.23
2019-04-26T05:23:26.970Z,93.40
2019-04-26T05:26:51.458Z,93.17
2019-04-26T05:29:59.480Z,93.12
2019-04-26T05:33:03.921Z,94.86
2019-04-26T05:35:57.316Z,94.80
2019-04-26T05:39:07.091Z,94.70
2019-04-26T05:42:27.312Z,94.25
2019-04-26T05:45:42.616Z,93.96
2019-04-26T05:48:55.726Z,95.22
2019-04-26T05:52:10.450Z,96.17
2019-04-26T05:55:10.376Z,96.21
2019-04-26T05:58:16.205Z,95.77
2019-04-26T06:01:40.602Z,94.15
2019-04-26T06:04:47.530Z,94.35
2019-04-26T06:07:32.920Z,93.28
2019-04-26T06:10:27.389Z,93.83
2019-04-26T06:13:06.330Z,94.33
2019-04-26T06:15:56.662Z,94.77
2019-04-26T06:18:37.697Z,93.87
2019-04-26T06:21:23.547Z,93.53
2019-04-26T06:24:24.004Z,95.56
2019-04-26T06:27:41.493Z,94.76
2019-04-26T06:30:23.235Z,93.40
2019-04-26T06:33:28.395Z,94.71
2019-04-26T06:35:57.676Z,94.63
2019-04-26T06:39:02.305Z,95.23
2019-04-26T06:42:14.751Z,94.06
2019-04-26T06:45:50.481Z,93.88
2019-04-26T06:48:39.663Z,95.41
2019-04-26T06:51:24.060Z,95.43
2019-04-26T06:54:01.235Z,94.07
2019-04-26T06:57:13.710Z,95.51
2019-04-26T06:59:51.878Z,95.17
2019-04-26T07:02:25.961Z,94.56
2019-04-26T07:05:07.899Z,94.90
2019-04-26T07:08:03.414Z,94.78
2019-04-26T07:11:30.425Z,95.24
2019-04-26T07:14:48.033Z,96.38
2019-04-26T07:17:19.110Z,93.86
2019-04-26T07:20:16.263Z,93.31
2019-04-26T07:23:31.130Z,94.53
2019-04-26T07:26:41.766Z,96.04
2019-04-26T07:30:05.177Z,95.94
2019-04-26T07:33:08.476Z,95.36
2019-04-26T07:35:47.767Z,95.58
2019-04-26T07:39:29.030Z,95.21
2019-04-26T07:42:46.516Z,93.43
2019-04-26T07:45:54.170Z,93.13
2019-04-26T07:49:19.351Z,94.52
2019-04-26T07:52:33.856Z,92.63
2019-04-26T07:55:24.441Z,91.74
2019-04-26T07:58:30.390Z,92.28
2019-04-26T08:01:12.105Z,92.05
2019-04-26T08:03:51.930Z,92.91
2019-04-26T08:06:55.941Z,91.17
2019-04-26T08:09:27.550Z,91.10
2019-04-26T08:11:59.347Z,90.55
2019-04-26T08:14:44.072Z,91.35
2019-04-26T08:17:32.183Z,90.01
2019-04-26T08:20:14.044Z,89.91
2019-04-26T08:22:43.703Z,93.22
2019-04-26T08:25:12.800Z,91.79
2019-04-26T08:27:43.074Z,90.45
2019-04-26T08:30:17.069Z,90.16
2019-04-26T08:32:50.555Z,90.38
2019-04-26T08:35:30.413Z,91.29
2019-04-26T08:38:07.919Z,92.70
2019-04-26T08:40:35.833Z,94.11
2019-04-26T08:43:27.303Z,93.06
2019-04-26T08:46:20.264Z,93.74
2019-04-26T08:48:58.156Z,92.27
2019-04-26T08:51:26.255Z,92.31
2019-04-26T08:53:55.338Z,89.83
2019-04-26T08:56:28.101Z,92.98
2019-04-26T08:59:00.764Z,94.33
2019-04-26T09:01:41.969Z,91.73
2019-04-26T09:04:35.243Z,91.77
2019-04-26T09:07:07.411Z,90.39
2019-04-26T09:09:37.360Z,89.40
2019-04-26T09:12:08.280Z,89.23
2019-04-26T09:14:38.248Z,88.65
2019-04-26T09:17:08.456Z,86.97
2019-04-26T09:19:37.509Z,86.51
2019-04-26T09:22:28.325Z,87.84
2019-04-26T09:25:30.324Z,88.64
2019-04-26T09:28:11.449Z,88.87
2019-04-26T09:30:59.478Z,86.77
2019-04-26T09:34:06.436Z,86.04
2019-04-26T09:36:33.505Z,86.05
2019-04-26T09:39:03.976Z,86.85
2019-04-26T09:41:34.476Z,85.51
2019-04-26T09:44:25.695Z,85.62
2019-04-26T09:47:12.931Z,85.48
2019-04-26T09:49:52.311Z,86.55
2019-04-26T09:52:25.080Z,84.47
2019-04-26T09:54:54.352Z,86.03
2019-04-26T09:57:24.084Z,86.89
2019-04-26T09:59:53.326Z,87.95
2019-04-26T10:02:23.503Z,88.50
2019-04-26T10:04:52.554Z,89.57
2019-04-26T10:07:21.675Z,90.99
2019-04-26T10:09:51.642Z,88.92
2019-04-26T10:12:30.737Z,89.82
2019-04-26T10:15:14.169Z,89.46
2019-04-26T10:17:46.434Z,89.97
2019-04-26T10:20:14.169Z,89.58
2019-04-26T10:22:44.744Z,89.72
2019-04-26T10:25:16.922Z,91.44
2019-04-26T10:27:45.338Z,89.36
2019-04-26T10:30:16.740Z,89.85
2019-04-26T10:32:46.915Z,89.00
2019-04-26T10:35:17.495Z,89.63
2019-04-26T10:37:48.183Z,89.65
2019-04-26T10:40:17.589Z,89.75
2019-04-26T10:42:47.728Z,89.28
2019-04-26T10:45:16.849Z,88.92
2019-04-26T10:47:45.897Z,88.44
2019-04-26T10:50:14.971Z,86.37
2019-04-26T10:52:53.099Z,86.29
2019-04-26T10:55:36.844Z,86.66
2019-04-26T10:58:36.322Z,86.98
2019-04-26T11:01:06.258Z,85.37
2019-04-26T11:03:35.314Z,84.76
2019-04-26T11:06:04.364Z,83.53
2019-04-26T11:08:33.414Z,85.36
2019-04-26T11:11:02.400Z,86.45
2019-04-26T11:13:31.432Z,86.85
2019-04-26T11:16:02.379Z,85.85
2019-04-26T11:18:31.382Z,86.04
2019-04-26T11:21:00.418Z,83.89
2019-04-26T11:23:29.434Z,84.91
2019-04-26T11:26:01.612Z,82.44
2019-04-26T11:28:29.318Z,82.88
2019-04-26T11:30:58.430Z,82.66
2019-04-26T11:33:27.508Z,83.25
2019-04-26T11:35:56.563Z,80.03
2019-04-26T11:38:26.968Z,82.90
2019-04-26T11:41:05.904Z,81.76
2019-04-26T11:43:27.228Z,79.71
2019-04-26T11:46:04.076Z,78.70
2019-04-26T11:48:29.214Z,78.47
2019-04-26T11:50:58.100Z,80.27
2019-04-26T11:53:27.174Z,78.60
2019-04-26T11:55:56.235Z,80.95
2019-04-26T11:58:25.233Z,79.99
2019-04-26T12:00:58.701Z,79.58
2019-04-26T12:03:27.782Z,79.25
2019-04-26T12:06:21.287Z,77.87
2019-04-26T12:08:56.111Z,75.31
2019-04-26T12:11:31.344Z,76.22
2019-04-26T12:13:59.445Z,76.75
2019-04-26T12:16:26.778Z,75.54
2019-04-26T12:18:57.069Z,75.92
2019-04-26T12:21:30.542Z,76.41
2019-04-26T12:23:58.004Z,77.04
2019-04-26T12:26:27.022Z,78.07
2019-04-26T12:28:56.153Z,77.47
2019-04-26T12:31:25.211Z,75.04
2019-04-26T12:33:54.242Z,77.18
2019-04-26T12:36:23.278Z,72.79
2019-04-26T12:38:52.334Z,74.72
2019-04-26T12:41:39.230Z,71.90
2019-04-26T12:43:54.531Z,71.31
2019-04-26T12:46:32.247Z,71.21
2019-04-26T12:49:01.328Z,71.51
2019-04-26T12:51:30.462Z,72.58
2019-04-26T12:53:59.500Z,71.56
2019-04-26T12:56:31.247Z,70.36
2019-04-26T12:58:59.383Z,67.23
2019-04-26T13:01:28.444Z,68.50
2019-04-26T13:04:07.328Z,68.76
2019-04-26T13:06:40.068Z,67.97
2019-04-26T13:09:14.317Z,67.38
2019-04-26T13:12:03.372Z,67.42
2019-04-26T13:14:54.204Z,66.37
2019-04-26T13:17:27.437Z,64.96
2019-04-26T13:19:56.522Z,65.36
2019-04-26T13:22:25.514Z,63.16
2019-04-26T13:24:54.564Z,63.90
2019-04-26T13:27:23.604Z,65.00
2019-04-26T13:30:01.860Z,63.80
2019-04-26T13:32:23.501Z,64.37
2019-04-26T13:34:52.666Z,65.76
2019-04-26T13:37:21.702Z,64.74
2019-04-26T13:39:51.248Z,61.61
2019-04-26T13:42:21.577Z,64.91
2019-04-26T13:45:09.613Z,63.88
2019-04-26T13:47:57.687Z,63.92
2019-04-26T13:50:30.808Z,61.35
2019-04-26T13:52:59.952Z,59.71
2019-04-26T13:55:30.447Z,58.42
2019-04-26T13:57:59.518Z,59.75
2019-04-26T14:00:31.271Z,60.00
2019-04-26T14:03:00.283Z,61.81
2019-04-26T14:05:29.359Z,60.67
2019-04-26T14:07:58.386Z,61.50
2019-04-26T14:10:27.484Z,61.46
2019-04-26T14:12:56.626Z,60.88
2019-04-26T14:15:25.671Z,61.75
2019-04-26T14:17:54.697Z,61.33
2019-04-26T14:20:24.491Z,61.59
2019-04-26T14:23:16.371Z,61.26
2019-04-26T14:26:01.154Z,59.16
2019-04-26T14:28:29.707Z,59.86
2019-04-26T14:30:59.212Z,59.37
2019-04-26T14:33:30.846Z,57.23
2019-04-26T14:35:59.097Z,58.92
2019-04-26T14:38:35.631Z,57.81
2019-04-26T14:41:04.201Z,56.67
2019-04-26T14:43:40.483Z,56.41
2019-04-26T14:46:01.123Z,54.70
2019-04-26T14:48:36.254Z,54.96
2019-04-26T14:51:07.841Z,56.77
2019-04-26T14:53:36.326Z,56.66
2019-04-26T14:56:05.080Z,58.75
2019-04-26T14:58:34.164Z,55.71
2019-04-26T15:01:04.880Z,57.91
2019-04-26T15:03:38.747Z,56.13
2019-04-26T15:06:20.516Z,53.70
2019-04-26T15:08:50.964Z,54.33
2019-04-26T15:11:20.058Z,55.64
2019-04-26T15:13:49.169Z,56.16
2019-04-26T15:16:22.167Z,56.54
2019-04-26T15:18:50.444Z,58.63
2019-04-26T15:21:19.635Z,57.14
2019-04-26T15:26:29.847Z,56.50
2019-04-26T15:28:56.489Z,56.01
2019-04-26T15:31:25.558Z,53.42
2019-04-26T15:33:54.636Z,54.33
2019-04-26T15:36:23.673Z,53.56
2019-04-26T15:38:52.967Z,52.95
2019-04-26T15:41:51.177Z,53.30
2019-04-26T15:44:34.634Z,54.62
2019-04-26T15:47:13.126Z,54.39
2019-04-26T15:49:52.888Z,55.60
2019-04-26T15:52:22.069Z,55.07
2019-04-26T15:54:52.988Z,53.81
2019-04-26T15:57:24.457Z,54.49
2019-04-26T15:59:54.301Z,55.66
2019-04-26T16:02:26.290Z,56.07
2019-04-26T16:04:55.522Z,55.90
2019-04-26T16:07:28.817Z,55.81
2019-04-26T16:09:57.406Z,56.11
2019-04-26T16:12:27.398Z,56.69
2019-04-26T16:14:56.558Z,56.52
2019-04-26T16:17:25.970Z,55.96
2019-04-26T16:19:56.131Z,57.03
2019-04-26T16:22:29.967Z,57.74
2019-04-26T16:24:58.278Z,56.63
2019-04-26T16:27:30.940Z,55.96
2019-04-26T16:30:09.850Z,58.00
2019-04-26T16:32:52.662Z,57.86
2019-04-26T16:35:25.322Z,57.94
2019-04-26T16:37:52.108Z,58.26
2019-04-26T16:40:21.236Z,58.78
2019-04-26T16:42:56.594Z,59.38
2019-04-26T16:45:22.694Z,59.97
2019-04-26T16:47:53.118Z,59.26
2019-04-26T16:50:31.178Z,61.35
2019-04-26T16:52:53.161Z,61.02
2019-04-26T16:55:24.673Z,60.51
2019-04-26T16:57:55.618Z,59.41
2019-04-26T17:00:47.112Z,58.92
2019-04-26T17:03:02.753Z,60.54
2019-04-26T17:05:46.925Z,59.59
2019-04-26T17:07:58.976Z,60.02
2019-04-26T17:10:29.136Z,58.66
2019-04-26T17:12:58.162Z,58.84
2019-04-26T17:15:27.369Z,59.30
2019-04-26T17:17:56.613Z,59.03
2019-04-26T17:20:26.468Z,58.67
2019-04-26T17:23:08.186Z,59.37
2019-04-26T17:25:55.132Z,61.08
2019-04-26T17:28:26.601Z,59.83
2019-04-26T17:30:55.907Z,59.45
2019-04-26T17:33:28.312Z,60.37
2019-04-26T17:35:55.812Z,59.15
2019-04-26T17:38:24.854Z,59.93
2019-04-26T17:40:53.948Z,60.10
2019-04-26T17:43:23.049Z,60.65
2019-04-26T17:45:54.518Z,60.26
2019-04-26T17:48:23.631Z,61.52
2019-04-26T17:50:55.050Z,61.04
2019-04-26T17:53:30.708Z,60.63
2019-04-26T17:55:55.204Z,61.59
2019-04-26T17:58:31.018Z,60.82
2019-04-26T18:01:01.073Z,61.52
2019-04-26T18:03:27.843Z,62.33
2019-04-26T18:05:58.386Z,62.55
2019-04-26T18:08:40.804Z,62.75
2019-04-26T18:11:00.852Z,63.25
2019-04-26T18:13:31.912Z,64.23
2019-04-26T18:16:00.785Z,65.01
2019-04-26T18:18:54.056Z,65.39
2019-04-26T18:21:38.323Z,66.35
2019-04-26T18:24:07.527Z,73.94
2019-04-26T18:26:36.643Z,69.54
2019-04-26T18:29:05.733Z,72.40
2019-04-26T18:31:34.856Z,72.89
2019-04-26T18:34:04.235Z,73.08
2019-04-26T18:36:33.420Z,75.14
2019-04-26T18:39:03.854Z,76.40
2019-04-26T18:41:33.926Z,76.24
2019-04-26T18:44:03.152Z,77.55
2019-04-26T18:46:47.148Z,76.87
2019-04-26T18:49:18.928Z,77.62
2019-04-26T18:51:48.189Z,77.81
2019-04-26T18:54:23.433Z,78.88
2019-04-26T18:56:56.239Z,79.83
2019-04-26T18:59:27.700Z,79.44
2019-04-26T19:01:56.299Z,79.59
2019-04-26T19:04:25.335Z,79.33
2019-04-26T19:06:54.425Z,79.44
2019-04-26T19:09:25.451Z,79.15
2019-04-26T19:11:56.205Z,80.23
2019-04-26T19:15:04.189Z,80.68
2019-04-26T19:17:43.599Z,80.75
2019-04-26T19:20:42.354Z,81.90
2019-04-26T19:23:12.200Z,81.95
2019-04-26T19:25:41.494Z,82.12
2019-04-26T19:28:12.156Z,82.40
2019-04-26T19:30:48.824Z,82.42
2019-04-26T19:33:16.858Z,82.53
2019-04-26T19:35:47.335Z,81.85
2019-04-26T19:38:16.327Z,81.91
2019-04-26T19:40:47.874Z,82.14
2019-04-26T19:43:28.336Z,82.37
2019-04-26T19:46:09.977Z,82.48
2019-04-26T19:49:16.849Z,83.07
2019-04-26T19:52:19.827Z,82.93
2019-04-26T19:55:01.924Z,83.68
2019-04-26T19:57:41.062Z,83.64
2019-04-26T20:00:10.887Z,84.55
2019-04-26T20:02:42.050Z,84.30
2019-04-26T20:05:11.929Z,84.27
2019-04-26T20:07:41.680Z,85.14
2019-04-26T20:10:12.771Z,86.26
2019-04-26T20:12:41.730Z,86.17
2019-04-26T20:15:24.908Z,86.66
2019-04-26T20:17:41.711Z,87.43
2019-04-26T20:20:20.763Z,87.29
2019-04-26T20:22:42.907Z,87.25
2019-04-26T20:25:12.533Z,87.05
2019-04-26T20:27:41.589Z,86.67
2019-04-26T20:30:18.238Z,87.53
2019-04-26T20:32:45.875Z,87.43
2019-04-26T20:35:26.969Z,86.77
2019-04-26T20:37:52.326Z,86.62
2019-04-26T20:40:25.496Z,86.65
2019-04-26T20:43:01.743Z,86.12
2019-04-26T20:45:38.822Z,86.17
2019-04-26T20:47:59.356Z,86.18
2019-04-26T20:50:32.684Z,85.90
2019-04-26T20:53:02.140Z,86.33
2019-04-26T20:55:34.512Z,86.53
2019-04-26T20:58:06.991Z,86.91
2019-04-26T21:00:36.443Z,86.72
2019-04-26T21:03:05.934Z,87.82
2019-04-26T21:05:45.820Z,87.89
2019-04-26T21:08:06.071Z,88.72
2019-04-26T21:10:36.032Z,88.09
2019-04-26T21:13:06.655Z,88.27
2019-04-26T21:15:36.167Z,87.73
2019-04-26T21:18:05.739Z,87.82
2019-04-26T21:20:36.427Z,87.91
2019-04-26T21:23:07.198Z,88.09
2019-04-26T21:25:46.606Z,88.10
2019-04-26T21:28:29.821Z,86.95
2019-04-26T21:31:30.011Z,87.56
2019-04-26T21:34:12.547Z,87.90
2019-04-26T21:36:59.907Z,88.08
2019-04-26T21:39:49.097Z,87.56
2019-04-26T21:42:20.957Z,88.02
2019-04-26T21:44:52.446Z,87.83
2019-04-26T21:47:20.333Z,87.67
2019-04-26T21:49:52.753Z,88.26
2019-04-26T21:52:21.338Z,88.49
2019-04-26T21:54:53.117Z,88.42
2019-04-26T21:57:27.643Z,89.01
2019-04-26T21:59:54.436Z,89.39
2019-04-26T22:02:25.515Z,89.04
2019-04-26T22:04:55.222Z,89.27
2019-04-26T22:07:24.379Z,89.08
2019-04-26T22:10:10.682Z,89.09
2019-04-26T22:12:39.975Z,89.63
2019-04-26T22:15:29.501Z,90.01
2019-04-26T22:18:00.678Z,89.55
2019-04-26T22:20:54.833Z,89.25
2019-04-26T22:23:39.538Z,89.85
2019-04-26T22:26:09.495Z,89.32
2019-04-26T22:28:38.566Z,90.25
2019-04-26T22:31:08.580Z,90.60
2019-04-26T22:33:38.330Z,90.05
2019-04-26T22:36:07.569Z,89.31
2019-04-26T22:38:36.659Z,89.59
2019-04-26T22:41:06.384Z,89.80
2019-04-26T22:43:58.860Z,89.22
2019-04-26T22:46:48.798Z,89.16
2019-04-26T22:49:16.078Z,89.21
2019-04-26T22:51:45.246Z,89.68
2019-04-26T22:54:14.345Z,89.75
2019-04-26T22:56:45.912Z,89.94
2019-04-26T22:59:14.406Z,90.36
2019-04-26T23:01:47.130Z,89.95
2019-04-26T23:04:23.653Z,89.20
2019-04-26T23:06:48.311Z,90.25
2019-04-26T23:09:19.218Z,92.84
2019-04-26T23:11:55.146Z,93.69
2019-04-26T23:14:55.193Z,92.21
2019-04-26T23:17:43.985Z,92.10
2019-04-26T23:20:34.403Z,92.20
2019-04-26T23:23:05.206Z,91.73
2019-04-26T23:25:34.755Z,91.83
2019-04-26T23:28:04.013Z,91.19
2019-04-26T23:30:33.174Z,89.75
2019-04-26T23:33:02.640Z,90.71
2019-04-26T23:35:37.529Z,90.63
2019-04-26T23:38:05.266Z,90.58
2019-04-26T23:40:34.695Z,92.65
2019-04-26T23:43:03.944Z,91.85
2019-04-26T23:45:34.423Z,93.18
2019-04-26T23:48:07.746Z,92.24
2019-04-26T23:50:35.048Z,92.00
2019-04-26T23:53:04.149Z,91.30
2019-04-26T23:55:33.799Z,91.10
2019-04-26T23:58:04.905Z,90.85
